Crew | Aerofun Virtual



 METAR AND TAF INFORMATION
METAR FOR EGNM
ADDS - METARS form results

(1530 UTC 24 May 2019)
Data provider http://aviationweather.gov/metar/data/
 
METAR text: EGNM 241520Z 27015KT 230V300 9999 FEW032 16/08 Q1016
Conditions at: EGNM (LEEDS AND BRADFO, GB) observed 1520 UTC 24 May 2019
Temperature: 16.0°C (61°F)
Dewpoint: 8.0°C (46°F) [RH = 59%]
Pressure (altimeter): 30.00 inches Hg (1016.0 mb)
Winds: from the W (270 degrees) at 17 MPH (15 knots; 7.7 m/s)
Visibility: 6 or more miles (10+ km)
Ceiling: at least 12,000 feet AGL
Clouds: few clouds at 3200 feet AGL
Weather: no significant weather observed at this time

METAR text: EGNM 241450Z 28015KT 9999 FEW031 16/09 Q1017
Conditions at: EGNM (LEEDS AND BRADFO, GB) observed 1450 UTC 24 May 2019
Temperature: 16.0°C (61°F)
Dewpoint: 9.0°C (48°F) [RH = 63%]
Pressure (altimeter): 30.03 inches Hg (1017.0 mb)
Winds: from the W (280 degrees) at 17 MPH (15 knots; 7.7 m/s)
Visibility: 6 or more miles (10+ km)
Ceiling: at least 12,000 feet AGL
Clouds: few clouds at 3100 feet AGL
Weather: no significant weather observed at this time

Forecast for: EGNM (LEEDS AND BRADFO, GB)
Text: TAF EGNM 241055Z 2412/2512 28013KT 9999 FEW030
Forecast period: 1200 UTC 24 May 2019 to 1200 UTC 25 May 2019
Forecast type: FROM: standard forecast or significant change
Winds: from the W (280 degrees) at 15 MPH (13 knots; 6.7 m/s)
Visibility: 6 or more miles 10+ km)
Ceiling: at least 12,000 feet AGL
Clouds: few clouds at 3000 feet AGL
Weather: no significant weather forecast for this period
Text: PROB30
Forecast period: 2200 UTC 24 May 2019 to 0800 UTC 25 May 2019
Forecast type: TEMPORARY: The following changes expected for less than half the time period
Visibility: missing
Ceiling: 1000 feet AGL
Clouds: broken clouds at 1000 feet AGL
Weather: no significant weather forecast for this period

 AIRPORT MAP

 RUNWAY INFORMATION
Runway 14 Runway length 7382 ft Runway width 150 ft
Runway elevation 673 ft Runway displaced threshold 958 ft Runway heading 138
Runway 32 Runway length 7382 ft Runway width 150 ft
Runway elevation 662 ft Runway displaced threshold 962 ft Runway heading 318

 AIRPORT FREQUENCIES
Type APP Name APP Frequency 123.75 MHZ
Type ATIS Name ATIS Frequency 118.025 MHZ
Type ILS Rw 32/ Name Frequency 110.9 MHZ
Type TWR Name TWR Frequency 120.3 MHZ

 AIRPORT NEAR NAVIGATION AIDS
Type NDB Name Leeds Bradford Frequency 403 KHZ